Time;durP1;ratioP1;P1;durP2;ratioP2;P2;SDS_P1;SDS_P2;PMS_P1;PMS_P2;Temp;Humidity;BMP_temperature;BMP_pressure;BME280_temperature;BME280_humidity;BME280_pressure;Samples;Min_cycle;Max_cycle;Signal;HPM_P1;HPM_P2
2023/03/11 00:00:42;;;;;;;23.03;16.40;;;2.10;99.90;;;;;;5040178;28;20494;-65
2023/03/11 00:03:11;;;;;;;23.03;15.67;;;2.20;99.90;;;;;;5039859;28;20984;-65
2023/03/11 00:05:39;;;;;;;24.20;15.93;;;2.30;99.90;;;;;;5039120;28;20976;-66
2023/03/11 00:08:09;;;;;;;27.20;16.90;;;2.20;99.90;;;;;;5040184;28;20452;-65
2023/03/11 00:10:39;;;;;;;27.23;16.43;;;2.20;99.90;;;;;;5040673;28;20433;-66
2023/03/11 00:13:07;;;;;;;24.30;15.57;;;2.20;99.90;;;;;;5039679;28;20467;-65
2023/03/11 00:15:34;;;;;;;28.83;17.33;;;2.10;99.90;;;;;;5039040;28;20494;-67
2023/03/11 00:18:02;;;;;;;24.47;17.03;;;2.00;99.90;;;;;;5038641;28;20462;-66
2023/03/11 00:20:31;;;;;;;25.03;15.37;;;2.00;99.90;;;;;;5038839;28;20475;-66
2023/03/11 00:22:58;;;;;;;23.83;15.03;;;1.90;99.90;;;;;;5037850;28;20484;-66
2023/03/11 00:25:34;;;;;;;21.40;14.97;;;1.80;99.90;;;;;;5037658;28;20455;-66
2023/03/11 00:28:01;;;;;;;21.77;13.77;;;1.70;99.90;;;;;;5038686;28;20443;-66
2023/03/11 00:30:28;;;;;;;20.77;13.93;;;1.70;99.90;;;;;;5038579;28;20470;-65
2023/03/11 00:32:58;;;;;;;19.10;12.67;;;1.60;99.90;;;;;;5039406;28;20456;-66
2023/03/11 00:35:26;;;;;;;16.90;12.30;;;1.50;99.90;;;;;;5038557;28;20472;-65
2023/03/11 00:37:55;;;;;;;17.37;12.87;;;1.50;99.90;;;;;;5038844;28;20778;-66
2023/03/11 00:40:24;;;;;;;18.53;12.23;;;1.50;99.90;;;;;;5039143;28;20793;-65
2023/03/11 00:42:53;;;;;;;18.07;13.10;;;1.60;99.90;;;;;;5039310;28;20543;-66
2023/03/11 00:45:21;;;;;;;18.13;12.30;;;1.50;99.90;;;;;;5038068;28;20455;-66
2023/03/11 00:47:48;;;;;;;18.03;13.07;;;1.40;99.90;;;;;;5039587;28;20467;-65
2023/03/11 00:50:17;;;;;;;18.90;12.87;;;1.40;99.90;;;;;;5039610;28;20506;-64
2023/03/11 00:52:45;;;;;;;18.50;13.63;;;1.40;99.90;;;;;;5038793;28;20452;-67
2023/03/11 00:55:15;;;;;;;20.43;13.27;;;1.40;99.90;;;;;;5038937;28;20551;-65
2023/03/11 00:57:42;;;;;;;18.13;14.10;;;1.40;99.90;;;;;;5038649;28;20725;-65
2023/03/11 01:00:16;;;;;;;25.63;18.40;;;1.40;99.90;;;;;;5035974;28;20543;-65
2023/03/11 01:02:42;;;;;;;33.83;21.23;;;1.30;99.90;;;;;;5036530;28;20773;-66
2023/03/11 01:05:10;;;;;;;35.40;22.60;;;1.30;99.90;;;;;;5036074;28;20811;-64
2023/03/11 01:07:37;;;;;;;21.77;15.50;;;1.30;99.90;;;;;;5036337;28;20554;-65
2023/03/11 01:10:06;;;;;;;26.23;18.17;;;1.30;99.90;;;;;;5035989;28;20559;-66
2023/03/11 01:12:33;;;;;;;24.83;16.20;;;1.30;99.90;;;;;;5037511;28;20543;-65
2023/03/11 01:15:00;;;;;;;23.53;16.13;;;1.20;99.90;;;;;;5038509;28;20801;-65
2023/03/11 01:17:28;;;;;;;25.90;16.60;;;1.10;99.90;;;;;;5038616;28;20834;-66
2023/03/11 01:19:55;;;;;;;24.30;16.73;;;1.20;99.90;;;;;;5039099;28;20535;-67
2023/03/11 01:22:22;;;;;;;24.70;17.63;;;1.20;99.90;;;;;;5039810;28;20841;-65
2023/03/11 01:24:49;;;;;;;26.77;17.87;;;1.20;99.90;;;;;;5038926;28;20519;-65
2023/03/11 01:27:16;;;;;;;29.20;17.30;;;1.10;99.90;;;;;;5038401;28;20543;-65
2023/03/11 01:29:43;;;;;;;24.53;16.30;;;1.10;99.90;;;;;;5037550;28;20535;-65
2023/03/11 01:32:10;;;;;;;23.67;15.70;;;1.10;99.90;;;;;;5037275;28;20858;-65
2023/03/11 01:34:39;;;;;;;18.93;13.30;;;1.20;99.90;;;;;;5036708;28;20452;-65
2023/03/11 01:37:05;;;;;;;18.77;13.67;;;1.10;99.90;;;;;;5037772;28;20543;-65
2023/03/11 01:39:32;;;;;;;18.60;12.90;;;1.20;99.90;;;;;;5036905;28;20457;-65
2023/03/11 01:41:59;;;;;;;20.67;12.70;;;1.10;99.90;;;;;;5036439;28;20521;-65
2023/03/11 01:44:26;;;;;;;12.23;9.70;;;1.10;99.90;;;;;;5036575;28;20476;-66
2023/03/11 01:47:29;;;;;;;13.97;9.73;;;1.10;99.90;;;;;;5037010;28;20456;-66
2023/03/11 01:49:57;;;;;;;12.67;8.73;;;1.10;99.90;;;;;;5023416;28;20459;-66
2023/03/11 01:52:25;;;;;;;12.03;8.67;;;1.10;99.90;;;;;;5037226;28;20845;-65
2023/03/11 01:54:51;;;;;;;10.40;7.60;;;1.10;99.90;;;;;;5037042;28;20456;-66
2023/03/11 01:57:19;;;;;;;9.90;7.07;;;1.10;99.90;;;;;;5036085;28;20467;-65
2023/03/11 01:59:50;;;;;;;10.20;6.67;;;1.10;99.90;;;;;;5035147;28;20932;-65
2023/03/11 02:02:21;;;;;;;6.00;5.13;;;1.20;99.90;;;;;;5035360;28;20538;-64
2023/03/11 02:04:49;;;;;;;6.53;5.10;;;1.10;99.90;;;;;;5035379;28;20792;-65
2023/03/11 02:07:17;;;;;;;5.80;5.03;;;1.10;99.90;;;;;;5035657;28;20462;-65
2023/03/11 02:09:45;;;;;;;5.70;4.30;;;1.10;99.90;;;;;;5035843;28;20466;-64
2023/03/11 02:12:14;;;;;;;5.00;4.00;;;1.10;99.90;;;;;;5036425;28;20470;-64
2023/03/11 02:14:45;;;;;;;4.50;3.87;;;1.10;99.90;;;;;;5035768;28;20490;-64
2023/03/11 02:17:12;;;;;;;3.47;3.10;;;1.20;99.90;;;;;;5035784;28;20449;-64
2023/03/11 02:19:54;;;;;;;4.73;3.37;;;1.20;99.90;;;;;;5035558;28;20466;-64
2023/03/11 02:22:22;;;;;;;3.93;3.53;;;1.20;99.90;;;;;;5035966;28;20454;-65
2023/03/11 02:24:57;;;;;;;3.57;3.03;;;1.20;99.90;;;;;;5035331;28;20484;-65
2023/03/11 02:27:28;;;;;;;3.23;2.93;;;1.20;99.90;;;;;;5035190;28;20912;-65
2023/03/11 02:29:56;;;;;;;3.80;3.30;;;1.20;99.90;;;;;;5035518;28;20487;-65
2023/03/11 02:32:24;;;;;;;3.30;3.00;;;1.20;99.90;;;;;;5035870;28;20487;-65
2023/03/11 02:34:50;;;;;;;4.43;3.33;;;1.20;99.90;;;;;;5034917;28;20487;-62
2023/03/11 02:37:18;;;;;;;3.83;3.53;;;1.10;99.90;;;;;;5035877;28;20543;-64
2023/03/11 02:39:47;;;;;;;3.30;2.90;;;1.20;99.90;;;;;;5035830;28;20466;-65
2023/03/11 02:42:19;;;;;;;4.13;3.73;;;1.20;99.90;;;;;;5036570;28;20470;-65
2023/03/11 02:45:00;;;;;;;4.20;3.40;;;1.20;99.90;;;;;;5039766;28;20479;-64
2023/03/11 02:47:27;;;;;;;4.27;3.57;;;1.20;99.90;;;;;;5039279;28;20456;-64
2023/03/11 02:49:55;;;;;;;5.43;3.20;;;1.20;99.90;;;;;;5039071;28;20462;-64
2023/03/11 02:52:23;;;;;;;4.40;3.53;;;1.20;99.90;;;;;;5039430;28;20776;-64
2023/03/11 02:54:50;;;;;;;3.83;3.40;;;1.30;99.90;;;;;;5038702;28;20935;-64
2023/03/11 02:57:17;;;;;;;3.77;3.20;;;1.20;99.90;;;;;;5039611;28;20831;-64
2023/03/11 02:59:44;;;;;;;4.70;4.00;;;1.20;99.90;;;;;;5038624;28;20459;-64
2023/03/11 03:02:13;;;;;;;3.73;3.40;;;1.20;99.90;;;;;;5038452;28;20462;-64
2023/03/11 03:04:39;;;;;;;4.27;3.87;;;1.20;99.90;;;;;;5038646;28;20505;-64
2023/03/11 03:07:06;;;;;;;4.30;3.80;;;1.20;99.90;;;;;;5056949;28;20465;-63
2023/03/11 03:09:34;;;;;;;4.10;3.70;;;1.20;99.90;;;;;;5058693;28;20465;-64
2023/03/11 03:12:01;;;;;;;5.80;4.50;;;1.20;99.90;;;;;;5058457;28;20459;-64
2023/03/11 03:14:28;;;;;;;5.50;3.90;;;1.20;99.90;;;;;;5058059;28;20491;-65
2023/03/11 03:16:55;;;;;;;5.63;5.07;;;1.20;99.90;;;;;;5059142;28;20465;-63
2023/03/11 03:19:23;;;;;;;4.97;4.40;;;1.30;99.90;;;;;;5058967;28;20465;-64
2023/03/11 03:21:50;;;;;;;6.37;5.47;;;1.20;99.90;;;;;;5059351;28;20451;-63
2023/03/11 03:24:17;;;;;;;5.90;4.70;;;1.20;99.90;;;;;;5058976;28;20482;-64
2023/03/11 03:26:43;;;;;;;5.40;4.80;;;1.20;99.90;;;;;;5058920;28;20843;-61
2023/03/11 03:29:10;;;;;;;5.40;4.77;;;1.20;99.90;;;;;;5057812;28;20554;-63
2023/03/11 03:31:40;;;;;;;6.23;5.20;;;1.20;99.90;;;;;;5058225;28;20459;-63
2023/03/11 03:34:07;;;;;;;5.93;4.90;;;1.20;99.90;;;;;;5058215;28;20448;-63
2023/03/11 03:36:35;;;;;;;6.67;4.90;;;1.20;99.90;;;;;;5057892;28;20549;-64
2023/03/11 03:39:02;;;;;;;7.20;5.17;;;1.10;99.90;;;;;;5058060;28;20465;-64
2023/03/11 03:41:29;;;;;;;6.30;5.10;;;1.10;99.90;;;;;;5058442;28;20487;-64
2023/03/11 03:43:55;;;;;;;5.77;4.73;;;1.10;99.90;;;;;;5058199;28;20542;-64
2023/03/11 03:46:22;;;;;;;5.10;4.43;;;1.10;99.90;;;;;;5039519;28;20456;-64
2023/03/11 03:48:50;;;;;;;6.13;4.70;;;1.10;99.90;;;;;;5044151;28;20521;-64
2023/03/11 03:51:18;;;;;;;6.77;4.90;;;1.10;99.90;;;;;;5058550;28;20452;-63
2023/03/11 03:53:46;;;;;;;7.43;5.87;;;1.20;99.90;;;;;;5057970;28;20518;-65
2023/03/11 03:56:15;;;;;;;8.37;5.73;;;1.10;99.90;;;;;;5058016;28;20470;-65
2023/03/11 03:58:42;;;;;;;6.43;5.47;;;1.20;99.90;;;;;;5057319;28;20546;-63
2023/03/11 04:01:11;;;;;;;7.50;5.77;;;1.20;99.90;;;;;;5058231;28;20494;-64
2023/03/11 04:03:38;;;;;;;11.00;6.50;;;1.20;99.90;;;;;;5057272;28;20550;-63
2023/03/11 04:06:10;;;;;;;10.07;6.70;;;1.10;99.90;;;;;;5057080;28;21032;-63
2023/03/11 04:08:37;;;;;;;9.43;6.63;;;1.10;99.90;;;;;;5057169;28;20493;-64
2023/03/11 04:11:05;;;;;;;9.90;6.90;;;1.10;99.90;;;;;;5057938;28;20846;-64
2023/03/11 04:13:32;;;;;;;10.77;7.37;;;1.10;99.90;;;;;;5057031;28;20920;-64
2023/03/11 04:15:59;;;;;;;11.40;7.47;;;1.10;99.90;;;;;;5056998;28;20946;-62
2023/03/11 04:18:26;;;;;;;9.83;6.53;;;1.10;99.90;;;;;;5057265;28;20554;-64
2023/03/11 04:20:53;;;;;;;8.13;6.20;;;1.00;99.90;;;;;;5057603;28;20451;-65
2023/03/11 04:23:20;;;;;;;9.93;6.87;;;1.10;99.90;;;;;;5057768;28;20764;-64
2023/03/11 04:25:47;;;;;;;10.70;7.00;;;1.10;99.90;;;;;;5057254;28;20482;-64
2023/03/11 04:28:15;;;;;;;9.57;7.20;;;1.00;99.90;;;;;;5057320;28;20451;-64
2023/03/11 04:30:42;;;;;;;10.43;7.20;;;1.00;99.90;;;;;;5057680;28;20455;-64
2023/03/11 04:33:09;;;;;;;9.20;6.83;;;1.00;99.90;;;;;;5057211;28;20455;-64
2023/03/11 04:35:38;;;;;;;9.50;7.00;;;1.00;99.90;;;;;;5057046;28;20461;-64
2023/03/11 04:38:05;;;;;;;12.03;6.80;;;1.00;99.90;;;;;;5057409;28;20452;-64
2023/03/11 04:40:31;;;;;;;7.23;5.67;;;1.10;99.90;;;;;;5056958;28;20466;-64
2023/03/11 04:42:58;;;;;;;8.20;6.80;;;1.10;99.90;;;;;;5056507;28;20455;-63
2023/03/11 04:45:26;;;;;;;8.47;7.00;;;1.00;99.90;;;;;;5056620;28;20483;-65
2023/03/11 04:47:53;;;;;;;7.57;5.80;;;1.00;99.90;;;;;;5056792;28;20541;-63
2023/03/11 04:50:21;;;;;;;7.77;6.07;;;1.00;99.90;;;;;;5056768;28;20455;-64
2023/03/11 04:52:48;;;;;;;7.53;5.70;;;1.10;99.90;;;;;;5056432;28;20915;-64
2023/03/11 04:55:15;;;;;;;8.27;5.83;;;1.10;99.90;;;;;;5056684;28;20451;-64
2023/03/11 04:57:42;;;;;;;11.80;6.10;;;1.20;99.90;;;;;;5057086;28;20466;-64
2023/03/11 05:00:12;;;;;;;8.97;6.20;;;1.20;99.90;;;;;;5056461;28;20550;-64
2023/03/11 05:02:41;;;;;;;7.27;5.10;;;1.10;99.90;;;;;;5056682;28;20825;-64
2023/03/11 05:05:09;;;;;;;8.50;5.77;;;1.10;99.90;;;;;;5055730;28;20574;-64
2023/03/11 05:07:36;;;;;;;7.37;5.47;;;1.10;99.90;;;;;;5056810;28;20456;-64
2023/03/11 05:10:04;;;;;;;8.00;6.33;;;1.20;99.90;;;;;;5056699;28;20791;-64
2023/03/11 05:12:31;;;;;;;8.30;6.27;;;1.20;99.90;;;;;;5056400;28;20900;-64
2023/03/11 05:14:58;;;;;;;8.37;6.20;;;1.20;99.90;;;;;;5056162;28;20815;-64
2023/03/11 05:17:25;;;;;;;8.00;5.70;;;1.20;99.90;;;;;;5056881;28;20455;-63
2023/03/11 05:19:53;;;;;;;8.97;6.30;;;1.20;99.90;;;;;;5056728;28;20455;-64
2023/03/11 05:22:21;;;;;;;7.17;5.50;;;1.20;99.90;;;;;;5056568;28;20469;-64
2023/03/11 05:24:48;;;;;;;7.37;5.93;;;1.20;99.90;;;;;;5056156;28;20485;-63
2023/03/11 05:27:16;;;;;;;7.50;5.33;;;1.10;99.90;;;;;;5056119;28;20554;-63
2023/03/11 05:29:43;;;;;;;7.27;5.80;;;1.20;99.90;;;;;;5056644;28;20803;-63
2023/03/11 05:32:11;;;;;;;7.00;5.43;;;1.20;99.90;;;;;;5055597;28;20545;-62
2023/03/11 05:34:38;;;;;;;6.60;5.57;;;1.20;99.90;;;;;;5056377;28;20799;-64
2023/03/11 05:37:06;;;;;;;13.10;7.43;;;1.20;99.90;;;;;;5055972;28;20469;-64
2023/03/11 05:39:33;;;;;;;6.43;5.30;;;1.30;99.90;;;;;;5055931;28;20517;-64
2023/03/11 05:42:00;;;;;;;10.20;7.13;;;1.30;99.90;;;;;;5055971;28;20550;-63
2023/03/11 05:44:27;;;;;;;8.30;5.77;;;1.20;99.90;;;;;;5056823;28;20461;-65
2023/03/11 05:46:54;;;;;;;8.50;6.40;;;1.20;99.90;;;;;;5056286;28;20489;-64
2023/03/11 05:49:21;;;;;;;8.63;6.10;;;1.30;99.90;;;;;;5055571;28;20455;-64
2023/03/11 05:51:48;;;;;;;8.10;6.23;;;1.20;99.90;;;;;;5055253;28;20934;-64
2023/03/11 05:54:16;;;;;;;7.83;5.80;;;1.20;99.90;;;;;;5055207;28;20525;-63
2023/03/11 05:56:44;;;;;;;13.23;6.47;;;1.20;99.90;;;;;;5054973;28;20494;-64
2023/03/11 05:59:12;;;;;;;8.13;6.37;;;1.20;99.90;;;;;;5054835;28;20455;-64
2023/03/11 06:01:39;;;;;;;8.07;6.10;;;1.20;99.90;;;;;;5055269;28;20451;-64
2023/03/11 06:04:06;;;;;;;9.37;6.63;;;1.10;99.90;;;;;;5055291;28;20788;-63
2023/03/11 06:06:33;;;;;;;9.47;6.70;;;1.20;99.90;;;;;;5055298;28;20808;-63
2023/03/11 06:09:00;;;;;;;7.30;5.87;;;1.20;99.90;;;;;;5055093;28;20459;-63
2023/03/11 06:11:29;;;;;;;8.10;6.10;;;1.20;99.90;;;;;;5055217;28;20455;-64
2023/03/11 06:13:57;;;;;;;8.27;6.20;;;1.20;99.90;;;;;;5054840;28;20479;-64
2023/03/11 06:16:25;;;;;;;8.10;6.30;;;1.20;99.90;;;;;;5055589;28;20450;-64
2023/03/11 06:18:52;;;;;;;8.53;5.80;;;1.20;99.90;;;;;;5055527;28;20485;-63
2023/03/11 06:21:20;;;;;;;11.27;6.60;;;1.20;99.90;;;;;;5054982;28;20459;-64
2023/03/11 06:23:47;;;;;;;12.20;6.93;;;1.20;99.90;;;;;;5055097;28;20489;-62
2023/03/11 06:26:16;;;;;;;9.97;7.00;;;1.20;99.90;;;;;;5054880;28;20483;-63
2023/03/11 06:28:45;;;;;;;9.77;7.33;;;1.20;99.90;;;;;;5054962;28;20879;-64
2023/03/11 06:31:14;;;;;;;10.60;7.40;;;1.20;99.90;;;;;;5054757;28;20912;-60
2023/03/11 06:33:41;;;;;;;11.57;8.17;;;1.20;99.90;;;;;;5055143;28;20455;-63
2023/03/11 06:36:08;;;;;;;13.17;8.00;;;1.10;99.90;;;;;;5054546;28;20546;-64
2023/03/11 06:38:35;;;;;;;10.70;8.40;;;1.10;99.90;;;;;;5055151;28;20849;-63
2023/03/11 06:41:04;;;;;;;13.37;8.20;;;1.20;99.90;;;;;;5054778;28;20462;-63
2023/03/11 06:43:32;;;;;;;11.43;7.47;;;1.10;99.90;;;;;;5054628;28;20451;-62
2023/03/11 06:46:00;;;;;;;11.97;7.43;;;1.10;99.90;;;;;;5054794;28;20479;-62
2023/03/11 06:48:28;;;;;;;12.90;8.53;;;1.10;99.90;;;;;;5055633;28;20455;-63
2023/03/11 06:50:58;;;;;;;11.97;8.40;;;1.10;99.90;;;;;;5055265;28;20975;-63
2023/03/11 06:53:26;;;;;;;11.67;8.33;;;1.10;99.90;;;;;;5055161;28;20447;-63
2023/03/11 06:56:01;;;;;;;10.87;7.60;;;1.10;99.90;;;;;;5055217;28;20451;-63
2023/03/11 06:58:29;;;;;;;9.23;7.67;;;1.10;99.90;;;;;;5055622;28;20459;-63
2023/03/11 07:01:01;;;;;;;12.37;7.83;;;1.20;99.90;;;;;;5054924;28;20459;-64
2023/03/11 07:03:28;;;;;;;10.60;8.03;;;1.20;99.90;;;;;;5055261;28;20462;-64
2023/03/11 07:05:55;;;;;;;10.70;7.90;;;1.20;99.90;;;;;;5055711;28;20489;-64
2023/03/11 07:08:22;;;;;;;10.10;8.20;;;1.00;99.90;;;;;;5056012;28;20844;-64
2023/03/11 07:11:00;;;;;;;12.40;8.27;;;1.00;99.90;;;;;;5055596;28;20462;-63
2023/03/11 07:13:27;;;;;;;12.33;7.93;;;1.00;99.90;;;;;;5055249;28;20447;-62
2023/03/11 07:16:02;;;;;;;11.10;6.73;;;1.10;99.90;;;;;;5055305;28;20479;-63
2023/03/11 07:18:29;;;;;;;9.80;7.83;;;1.10;99.90;;;;;;5055356;28;20442;-63
2023/03/11 07:20:56;;;;;;;11.50;7.60;;;1.10;99.90;;;;;;5054718;28;20919;-63
2023/03/11 07:23:23;;;;;;;11.43;8.60;;;1.20;99.90;;;;;;5054995;28;20455;-63
2023/03/11 07:25:50;;;;;;;13.33;8.43;;;1.10;99.90;;;;;;5053021;28;20838;-64
2023/03/11 07:28:17;;;;;;;9.20;7.43;;;1.20;99.90;;;;;;5055552;28;20912;-62
2023/03/11 07:30:45;;;;;;;10.10;7.50;;;1.20;99.90;;;;;;5058012;28;20575;-62
2023/03/11 07:33:13;;;;;;;9.83;7.33;;;1.10;99.90;;;;;;5058674;28;20465;-63
2023/03/11 07:35:40;;;;;;;10.97;7.50;;;1.20;99.90;;;;;;5056856;28;20856;-63
2023/03/11 07:38:07;;;;;;;12.30;7.43;;;1.30;99.90;;;;;;5058547;28;20483;-63
2023/03/11 07:40:35;;;;;;;10.03;7.13;;;1.30;99.90;;;;;;5058886;28;20838;-63
2023/03/11 07:43:02;;;;;;;12.47;7.77;;;1.40;99.90;;;;;;5058774;28;20465;-61
2023/03/11 07:45:29;;;;;;;10.43;7.90;;;1.30;99.90;;;;;;5058296;28;20491;-63
2023/03/11 07:47:55;;;;;;;14.10;8.20;;;1.40;99.90;;;;;;5058466;28;20803;-64
2023/03/11 07:50:23;;;;;;;10.80;7.83;;;1.40;99.90;;;;;;5057880;28;20553;-63
2023/03/11 07:52:50;;;;;;;13.80;7.60;;;1.40;99.90;;;;;;5058000;28;20459;-64
2023/03/11 07:55:17;;;;;;;12.40;7.97;;;1.40;99.90;;;;;;5057640;28;20466;-63
2023/03/11 07:57:47;;;;;;;10.07;7.10;;;1.50;99.90;;;;;;5057055;28;20559;-63
2023/03/11 08:00:15;;;;;;;15.17;9.20;;;1.60;99.90;;;;;;5056932;28;20931;-64
2023/03/11 08:02:42;;;;;;;9.60;7.73;;;1.60;99.90;;;;;;5057451;28;20470;-64
2023/03/11 08:05:10;;;;;;;9.23;6.60;;;1.60;99.90;;;;;;5057748;28;20466;-60
2023/03/11 08:07:38;;;;;;;10.57;7.53;;;1.60;99.90;;;;;;5057924;28;20546;-59
2023/03/11 08:10:06;;;;;;;11.37;7.87;;;1.60;99.90;;;;;;5057767;28;20459;-61
2023/03/11 08:12:33;;;;;;;12.10;8.13;;;1.70;99.90;;;;;;5058080;28;20466;-64
2023/03/11 08:15:00;;;;;;;10.83;7.10;;;1.60;99.90;;;;;;5059783;28;20518;-63
2023/03/11 08:17:28;;;;;;;8.90;7.10;;;1.60;99.90;;;;;;5060636;28;20903;-65
2023/03/11 08:19:55;;;;;;;8.70;7.80;;;1.60;99.90;;;;;;5060442;28;20528;-64
2023/03/11 08:22:22;;;;;;;10.47;8.07;;;1.70;99.90;;;;;;5060277;28;20455;-64
2023/03/11 08:24:52;;;;;;;9.80;7.20;;;1.70;99.90;;;;;;5059307;28;20484;-64
2023/03/11 08:27:19;;;;;;;10.87;8.20;;;1.60;99.90;;;;;;5059979;28;20467;-62
2023/03/11 08:29:46;;;;;;;11.07;7.40;;;1.60;99.90;;;;;;5059629;28;20459;-63
2023/03/11 08:32:13;;;;;;;11.90;7.10;;;1.60;99.90;;;;;;5060467;28;20469;-63
2023/03/11 08:34:40;;;;;;;10.20;7.47;;;1.60;99.90;;;;;;5060745;28;20544;-63
2023/03/11 08:37:07;;;;;;;9.80;6.70;;;1.60;99.90;;;;;;5060876;28;20447;-64
2023/03/11 08:39:34;;;;;;;10.30;6.90;;;1.70;99.90;;;;;;5060950;28;20555;-64
2023/03/11 08:42:02;;;;;;;8.83;7.20;;;1.70;99.90;;;;;;5061448;28;20455;-64
2023/03/11 08:44:29;;;;;;;9.70;6.87;;;1.70;99.90;;;;;;5063170;28;20472;-64
2023/03/11 08:46:56;;;;;;;11.20;6.90;;;1.80;99.90;;;;;;5061896;28;20511;-63
2023/03/11 08:49:23;;;;;;;7.60;6.73;;;1.80;99.90;;;;;;5061640;28;20521;-63
2023/03/11 08:51:50;;;;;;;8.13;6.50;;;1.90;99.90;;;;;;5062322;28;20454;-62
2023/03/11 08:54:17;;;;;;;8.23;7.43;;;1.90;99.90;;;;;;5062035;28;20459;-62
2023/03/11 08:56:43;;;;;;;10.00;7.00;;;1.90;99.90;;;;;;5062294;28;20851;-64
2023/03/11 08:59:12;;;;;;;8.20;6.93;;;1.90;99.90;;;;;;5062697;28;20520;-59
2023/03/11 09:01:38;;;;;;;8.80;6.80;;;1.90;99.90;;;;;;5062129;28;20535;-64
2023/03/11 09:04:05;;;;;;;8.40;6.63;;;1.80;99.90;;;;;;5042057;28;20924;-65
2023/03/11 09:06:32;;;;;;;8.53;6.93;;;1.90;99.90;;;;;;5043485;28;20534;-62
2023/03/11 09:08:59;;;;;;;6.90;6.20;;;1.90;99.90;;;;;;5044397;28;20466;-65
2023/03/11 09:11:26;;;;;;;6.73;6.00;;;2.00;99.90;;;;;;5043533;28;20455;-64
2023/03/11 09:13:53;;;;;;;6.90;5.33;;;2.00;99.90;;;;;;5043984;28;20561;-63
2023/03/11 09:16:22;;;;;;;7.50;5.77;;;2.00;99.90;;;;;;5043351;28;20436;-62
2023/03/11 09:18:50;;;;;;;11.43;7.10;;;2.10;99.90;;;;;;5042920;28;20487;-61
2023/03/11 09:21:17;;;;;;;10.83;6.77;;;2.10;99.90;;;;;;5044031;28;20921;-63
2023/03/11 09:23:44;;;;;;;7.67;5.30;;;2.30;99.90;;;;;;5043003;28;20542;-64
2023/03/11 09:26:11;;;;;;;6.40;5.67;;;2.40;99.90;;;;;;5042845;28;20486;-65
2023/03/11 09:28:37;;;;;;;6.97;6.27;;;2.50;99.90;;;;;;5043215;28;20467;-63
2023/03/11 09:31:04;;;;;;;8.33;5.90;;;2.40;99.90;;;;;;5044115;28;20498;-65
2023/03/11 09:33:37;;;;;;;8.67;7.63;;;2.30;99.90;;;;;;5044462;28;20537;-64
2023/03/11 09:36:04;;;;;;;11.37;6.10;;;2.30;99.90;;;;;;5037544;28;20437;-64
2023/03/11 09:38:31;;;;;;;7.93;6.60;;;2.40;99.90;;;;;;5036673;28;20550;-65
2023/03/11 09:41:01;;;;;;;8.70;7.00;;;2.40;99.90;;;;;;5036506;28;20456;-64
2023/03/11 09:43:48;;;;;;;11.20;6.40;;;2.40;99.90;;;;;;5036617;28;20460;-64
2023/03/11 09:46:36;;;;;;;6.73;6.03;;;2.40;99.90;;;;;;5036462;28;20575;-64
2023/03/11 09:49:14;;;;;;;12.20;7.23;;;2.40;99.90;;;;;;5036111;28;20444;-64
2023/03/11 09:51:46;;;;;;;9.03;6.77;;;2.50;99.90;;;;;;5035323;28;20454;-63
2023/03/11 09:54:14;;;;;;;7.40;6.57;;;2.50;99.90;;;;;;5036771;28;20440;-64
2023/03/11 09:56:43;;;;;;;8.30;6.20;;;2.50;99.90;;;;;;5036513;28;20539;-64
2023/03/11 09:59:18;;;;;;;9.13;7.50;;;2.60;99.90;;;;;;5035782;28;20759;-64
2023/03/11 10:01:47;;;;;;;7.67;6.43;;;2.70;99.90;;;;;;5035932;28;20447;-63
2023/03/11 10:04:21;;;;;;;8.40;6.70;;;2.80;99.90;;;;;;5035531;28;20898;-62
2023/03/11 10:06:48;;;;;;;8.90;6.40;;;2.90;99.90;;;;;;5035156;28;20803;-64
2023/03/11 10:09:28;;;;;;;7.60;6.27;;;2.80;99.90;;;;;;5035477;28;20456;-64
2023/03/11 10:12:16;;;;;;;7.20;6.30;;;2.80;99.90;;;;;;5035920;28;20462;-63
2023/03/11 10:14:55;;;;;;;6.67;5.93;;;2.70;99.90;;;;;;5035582;28;20487;-63
2023/03/11 10:17:49;;;;;;;7.90;6.47;;;2.70;99.90;;;;;;5035440;28;20501;-61
2023/03/11 10:20:22;;;;;;;7.47;6.30;;;2.80;99.90;;;;;;5035085;28;20482;-63
2023/03/11 10:22:58;;;;;;;8.10;6.40;;;2.90;99.90;;;;;;5035405;28;20491;-62
2023/03/11 10:25:28;;;;;;;7.53;6.70;;;2.70;99.90;;;;;;5035381;28;20440;-64
2023/03/11 10:28:00;;;;;;;9.17;8.03;;;2.70;99.90;;;;;;5035331;28;20554;-63
2023/03/11 10:30:31;;;;;;;8.03;7.00;;;2.80;99.90;;;;;;5034906;28;21011;-63
2023/03/11 10:33:01;;;;;;;8.13;6.47;;;2.70;99.90;;;;;;5035560;28;20466;-63
2023/03/11 10:35:37;;;;;;;7.97;7.13;;;2.30;99.90;;;;;;5036027;28;20460;-64
2023/03/11 10:38:11;;;;;;;7.30;6.33;;;2.30;99.90;;;;;;5036546;28;20450;-65
2023/03/11 10:40:41;;;;;;;7.83;7.03;;;2.20;99.90;;;;;;5035925;28;20555;-61
2023/03/11 10:43:13;;;;;;;9.50;7.43;;;2.30;99.90;;;;;;5036057;28;20440;-63
2023/03/11 10:45:43;;;;;;;9.13;7.83;;;2.20;99.90;;;;;;5036629;28;20553;-64
2023/03/11 10:48:11;;;;;;;8.60;7.63;;;2.20;99.90;;;;;;5036059;28;20468;-64
2023/03/11 10:50:47;;;;;;;10.07;7.60;;;2.20;99.90;;;;;;5035822;28;20908;-64
2023/03/11 10:53:16;;;;;;;9.57;7.70;;;2.20;99.90;;;;;;5034894;28;20447;-63
2023/03/11 10:55:47;;;;;;;8.67;7.63;;;2.20;99.90;;;;;;5034526;28;20455;-64
2023/03/11 10:58:15;;;;;;;8.97;7.47;;;2.30;99.90;;;;;;5034511;28;20440;-64
2023/03/11 11:00:42;;;;;;;7.87;6.90;;;2.30;99.90;;;;;;5034408;28;20467;-64
2023/03/11 11:03:21;;;;;;;8.47;7.50;;;2.30;99.90;;;;;;5035498;28;20920;-64
2023/03/11 11:05:59;;;;;;;8.17;7.07;;;2.40;99.90;;;;;;5039551;28;20450;-64
2023/03/11 11:08:26;;;;;;;10.40;7.40;;;2.50;99.90;;;;;;5039712;28;20551;-63
2023/03/11 11:10:55;;;;;;;9.50;7.30;;;2.50;99.90;;;;;;5039035;28;20523;-64
2023/03/11 11:13:24;;;;;;;9.13;7.43;;;2.40;99.90;;;;;;5038398;28;20463;-65
2023/03/11 11:15:57;;;;;;;8.87;7.57;;;2.40;99.90;;;;;;5038909;28;20475;-64
2023/03/11 11:18:28;;;;;;;7.83;6.87;;;2.50;99.90;;;;;;5039218;28;20443;-65
2023/03/11 11:21:02;;;;;;;10.80;8.83;;;2.60;99.90;;;;;;5039145;28;20454;-63
2023/03/11 11:23:34;;;;;;;9.90;8.20;;;2.70;99.90;;;;;;5038684;28;20441;-63
2023/03/11 11:26:03;;;;;;;9.87;7.60;;;2.80;99.90;;;;;;5038041;28;20527;-64
2023/03/11 11:28:31;;;;;;;8.67;7.73;;;2.70;99.90;;;;;;5038019;28;20448;-65
2023/03/11 11:31:00;;;;;;;12.67;8.87;;;2.60;99.90;;;;;;5038345;28;20451;-64
2023/03/11 11:33:29;;;;;;;10.60;9.00;;;2.60;99.90;;;;;;5038047;28;20459;-63
2023/03/11 11:36:01;;;;;;;11.17;9.77;;;2.60;99.90;;;;;;5038094;28;20800;-65
2023/03/11 11:38:30;;;;;;;11.03;9.13;;;2.60;99.90;;;;;;5038493;28;20437;-64
2023/03/11 11:41:01;;;;;;;10.13;8.30;;;2.70;99.90;;;;;;5038572;28;20464;-63
2023/03/11 11:43:46;;;;;;;12.30;9.90;;;2.70;99.90;;;;;;5039154;28;20911;-65
2023/03/11 11:46:20;;;;;;;17.73;12.67;;;2.80;99.90;;;;;;5038506;28;20442;-64
2023/03/11 11:48:54;;;;;;;13.30;10.13;;;2.70;99.90;;;;;;5039470;28;20542;-65
2023/03/11 11:51:28;;;;;;;12.87;9.40;;;2.80;99.90;;;;;;5039325;28;20459;-65
2023/03/11 11:54:00;;;;;;;11.50;8.73;;;2.60;99.90;;;;;;5038234;28;20440;-65
2023/03/11 11:56:28;;;;;;;11.10;9.10;;;2.60;99.90;;;;;;5039285;28;20502;-63
2023/03/11 11:58:55;;;;;;;9.97;8.33;;;2.50;99.90;;;;;;5039013;28;20488;-66
2023/03/11 12:01:30;;;;;;;10.07;8.77;;;2.70;99.90;;;;;;5039230;28;20849;-62
2023/03/11 12:04:35;;;;;;;9.53;8.13;;;2.80;99.90;;;;;;5039629;28;20455;-64
2023/03/11 12:07:22;;;;;;;14.53;9.37;;;3.00;99.90;;;;;;5039136;28;20559;-65
2023/03/11 12:09:55;;;;;;;9.33;8.37;;;3.00;99.90;;;;;;5038863;28;20547;-65
2023/03/11 12:12:30;;;;;;;11.13;8.83;;;2.90;99.90;;;;;;5039080;28;20448;-64
2023/03/11 12:15:06;;;;;;;12.57;8.60;;;3.00;99.90;;;;;;5038540;28;20983;-64
2023/03/11 12:17:38;;;;;;;9.10;8.10;;;3.10;99.90;;;;;;5039127;28;20440;-64
2023/03/11 12:20:11;;;;;;;9.70;8.70;;;3.20;99.90;;;;;;5038303;28;20476;-64
2023/03/11 12:23:01;;;;;;;9.57;8.03;;;3.10;99.90;;;;;;5038551;28;20437;-65
2023/03/11 12:25:33;;;;;;;10.37;8.53;;;3.00;99.90;;;;;;5039783;28;20445;-64
2023/03/11 12:28:08;;;;;;;10.47;8.70;;;2.80;99.90;;;;;;5040492;28;20486;-65
2023/03/11 12:30:41;;;;;;;10.67;8.90;;;2.80;99.90;;;;;;5039512;28;20439;-64
2023/03/11 12:33:17;;;;;;;11.40;8.93;;;2.70;99.90;;;;;;5039051;28;20480;-65
2023/03/11 12:35:50;;;;;;;11.83;8.63;;;2.60;99.90;;;;;;5038882;28;20454;-65
2023/03/11 12:38:24;;;;;;;12.40;8.60;;;2.60;99.90;;;;;;5040374;28;20444;-66
2023/03/11 12:41:06;;;;;;;11.47;8.77;;;2.70;99.90;;;;;;5039633;28;20521;-65
2023/03/11 12:44:10;;;;;;;9.73;8.50;;;2.70;99.90;;;;;;5036948;28;20470;-65
2023/03/11 12:47:17;;;;;;;9.50;7.70;;;3.00;99.90;;;;;;5039095;28;20455;-65
2023/03/11 12:49:46;;;;;;;9.50;8.23;;;3.20;99.90;;;;;;5039439;28;20523;-65
2023/03/11 12:52:27;;;;;;;9.13;8.23;;;3.10;99.90;;;;;;5039285;28;20462;-65
2023/03/11 12:55:37;;;;;;;10.00;8.20;;;3.10;99.90;;;;;;5039626;28;20592;-65
2023/03/11 12:58:40;;;;;;;9.80;7.83;;;3.00;99.90;;;;;;5038989;28;20877;-63
2023/03/11 13:01:30;;;;;;;9.93;7.63;;;3.00;99.90;;;;;;5038329;28;20440;-64
2023/03/11 13:04:05;;;;;;;9.67;8.00;;;2.90;99.90;;;;;;5039641;28;20480;-64